sensor_id;sensor_type;location;lat;lon;timestamp;pressure;altitude;pressure_sealevel;temperature;humidity
28630;BME280;15817;42.130;24.762;2023-02-02T00:01:24;99962.75;;;5.73;58.85
28630;BME280;15817;42.130;24.762;2023-02-02T00:03:50;99968.06;;;5.76;58.96
28630;BME280;15817;42.130;24.762;2023-02-02T00:06:18;99967.97;;;5.70;59.13
28630;BME280;15817;42.130;24.762;2023-02-02T00:08:47;99975.91;;;5.71;59.27
28630;BME280;15817;42.130;24.762;2023-02-02T00:11:13;99968.75;;;5.63;59.05
28630;BME280;15817;42.130;24.762;2023-02-02T00:13:42;99983.84;;;5.73;59.08
28630;BME280;15817;42.130;24.762;2023-02-02T00:18:54;99971.47;;;5.69;58.19
28630;BME280;15817;42.130;24.762;2023-02-02T00:21:21;99976.00;;;5.76;58.59
28630;BME280;15817;42.130;24.762;2023-02-02T00:23:47;99967.16;;;5.74;58.51
28630;BME280;15817;42.130;24.762;2023-02-02T00:26:15;99968.06;;;5.77;58.60
28630;BME280;15817;42.130;24.762;2023-02-02T00:28:41;99991.13;;;5.88;58.02
28630;BME280;15817;42.130;24.762;2023-02-02T00:31:08;99978.75;;;5.85;57.62
28630;BME280;15817;42.130;24.762;2023-02-02T00:33:34;99974.28;;;5.81;57.70
28630;BME280;15817;42.130;24.762;2023-02-02T00:36:00;99980.53;;;5.86;58.05
28630;BME280;15817;42.130;24.762;2023-02-02T00:38:26;99983.19;;;5.86;58.35
28630;BME280;15817;42.130;24.762;2023-02-02T00:40:55;99987.63;;;5.89;59.44
28630;BME280;15817;42.130;24.762;2023-02-02T00:43:21;99982.22;;;5.82;58.78
28630;BME280;15817;42.130;24.762;2023-02-02T00:45:47;99972.50;;;5.80;58.85
28630;BME280;15817;42.130;24.762;2023-02-02T00:48:14;99974.28;;;5.81;58.63
28630;BME280;15817;42.130;24.762;2023-02-02T00:50:40;99968.97;;;5.78;58.88
28630;BME280;15817;42.130;24.762;2023-02-02T00:53:13;99972.47;;;5.77;58.69
28630;BME280;15817;42.130;24.762;2023-02-02T00:55:39;99959.25;;;5.74;59.35
28630;BME280;15817;42.130;24.762;2023-02-02T00:58:06;99963.59;;;5.72;59.41
28630;BME280;15817;42.130;24.762;2023-02-02T01:00:35;99961.81;;;5.71;59.48
28630;BME280;15817;42.130;24.762;2023-02-02T01:03:02;99963.56;;;5.70;59.99
28630;BME280;15817;42.130;24.762;2023-02-02T01:05:30;99983.03;;;5.75;59.89
28630;BME280;15817;42.130;24.762;2023-02-02T01:07:58;99973.22;;;5.68;59.61
28630;BME280;15817;42.130;24.762;2023-02-02T01:10:28;99990.03;;;5.73;59.92
28630;BME280;15817;42.130;24.762;2023-02-02T01:12:54;99989.13;;;5.73;59.95
28630;BME280;15817;42.130;24.762;2023-02-02T01:15:20;99968.78;;;5.66;60.38
28630;BME280;15817;42.130;24.762;2023-02-02T01:17:48;99983.78;;;5.68;60.19
28630;BME280;15817;42.130;24.762;2023-02-02T01:20:22;99976.69;;;5.64;60.20
28630;BME280;15817;42.130;24.762;2023-02-02T01:22:50;99981.06;;;5.62;60.52
28630;BME280;15817;42.130;24.762;2023-02-02T01:25:17;99985.50;;;5.65;60.26
28630;BME280;15817;42.130;24.762;2023-02-02T01:27:45;99989.94;;;5.69;60.50
28630;BME280;15817;42.130;24.762;2023-02-02T01:30:13;99982.84;;;5.63;60.69
28630;BME280;15817;42.130;24.762;2023-02-02T01:32:48;100001.34;;;5.68;60.83
28630;BME280;15817;42.130;24.762;2023-02-02T01:35:14;100002.25;;;5.70;61.30
28630;BME280;15817;42.130;24.762;2023-02-02T01:37:42;99987.25;;;5.64;60.84
28630;BME280;15817;42.130;24.762;2023-02-02T01:40:09;99993.50;;;5.71;60.55
28630;BME280;15817;42.130;24.762;2023-02-02T01:42:44;99974.94;;;5.65;60.85
28630;BME280;15817;42.130;24.762;2023-02-02T01:45:20;99981.97;;;5.64;60.93
28630;BME280;15817;42.130;24.762;2023-02-02T01:47:51;99984.59;;;5.63;61.37
28630;BME280;15817;42.130;24.762;2023-02-02T01:50:26;99989.03;;;5.68;61.48
28630;BME280;15817;42.130;24.762;2023-02-02T01:52:56;99975.78;;;5.62;61.25
28630;BME280;15817;42.130;24.762;2023-02-02T01:55:27;99968.72;;;5.61;61.12
28630;BME280;15817;42.130;24.762;2023-02-02T01:58:05;99974.84;;;5.60;60.94
28630;BME280;15817;42.130;24.762;2023-02-02T02:00:37;99974.00;;;5.61;61.06
28630;BME280;15817;42.130;24.762;2023-02-02T02:03:08;99979.31;;;5.63;60.93
28630;BME280;15817;42.130;24.762;2023-02-02T02:05:43;99984.59;;;5.63;60.67
28630;BME280;15817;42.130;24.762;2023-02-02T02:08:19;99999.56;;;5.65;60.18
28630;BME280;15817;42.130;24.762;2023-02-02T02:10:48;99982.84;;;5.66;60.98
28630;BME280;15817;42.130;24.762;2023-02-02T02:13:22;99995.22;;;5.69;61.03
28630;BME280;15817;42.130;24.762;2023-02-02T02:21:49;99973.88;;;5.55;61.09
28630;BME280;15817;42.130;24.762;2023-02-02T02:24:47;99993.38;;;5.63;61.05
28630;BME280;15817;42.130;24.762;2023-02-02T02:30:51;99988.88;;;5.58;61.39
28630;BME280;15817;42.130;24.762;2023-02-02T02:33:34;99980.03;;;5.54;61.47
28630;BME280;15817;42.130;24.762;2023-02-02T02:36:13;99986.25;;;5.58;61.35
28630;BME280;15817;42.130;24.762;2023-02-02T02:39:09;99984.50;;;5.58;61.83
28630;BME280;15817;42.130;24.762;2023-02-02T02:41:43;99972.09;;;5.51;61.50
28630;BME280;15817;42.130;24.762;2023-02-02T02:44:12;99983.53;;;5.55;61.81
28630;BME280;15817;42.130;24.762;2023-02-02T02:46:42;99970.28;;;5.49;61.90
28630;BME280;15817;42.130;24.762;2023-02-02T02:49:10;99972.94;;;5.50;62.04
28630;BME280;15817;42.130;24.762;2023-02-02T02:51:47;99976.50;;;5.52;61.84
28630;BME280;15817;42.130;24.762;2023-02-02T02:59:33;99980.91;;;5.53;62.25
28630;BME280;15817;42.130;24.762;2023-02-02T03:10:27;99963.19;;;5.46;62.01
28630;BME280;15817;42.130;24.762;2023-02-02T03:12:54;99959.63;;;5.44;62.16
28630;BME280;15817;42.130;24.762;2023-02-02T03:15:21;99971.13;;;5.47;61.50
28630;BME280;15817;42.130;24.762;2023-02-02T03:17:48;99972.94;;;5.50;61.60
28630;BME280;15817;42.130;24.762;2023-02-02T03:20:15;99964.09;;;5.46;61.22
28630;BME280;15817;42.130;24.762;2023-02-02T03:22:41;99966.78;;;5.50;61.18
28630;BME280;15817;42.130;24.762;2023-02-02T03:25:07;99957.06;;;5.47;61.22
28630;BME280;15817;42.130;24.762;2023-02-02T03:27:39;99970.41;;;5.58;60.83
28630;BME280;15817;42.130;24.762;2023-02-02T03:30:07;99960.72;;;5.57;60.92
28630;BME280;15817;42.130;24.762;2023-02-02T03:32:39;99944.81;;;5.51;60.68
28630;BME280;15817;42.130;24.762;2023-02-02T03:35:07;99951.94;;;5.58;60.64
28630;BME280;15817;42.130;24.762;2023-02-02T03:37:33;99953.72;;;5.59;60.58
28630;BME280;15817;42.130;24.762;2023-02-02T03:39:59;99950.28;;;5.63;60.81
28630;BME280;15817;42.130;24.762;2023-02-02T03:42:25;99960.84;;;5.66;60.62
28630;BME280;15817;42.130;24.762;2023-02-02T03:44:51;99957.38;;;5.65;60.73
28630;BME280;15817;42.130;24.762;2023-02-02T03:47:17;99943.16;;;5.57;60.66
28630;BME280;15817;42.130;24.762;2023-02-02T03:49:42;99941.44;;;5.59;60.43
28630;BME280;15817;42.130;24.762;2023-02-02T03:52:11;99954.69;;;5.64;60.80
28630;BME280;15817;42.130;24.762;2023-02-02T03:54:36;99937.06;;;5.61;60.41
28630;BME280;15817;42.130;24.762;2023-02-02T03:57:02;99949.44;;;5.65;60.59
28630;BME280;15817;42.130;24.762;2023-02-02T03:59:28;99954.78;;;5.70;60.75
28630;BME280;15817;42.130;24.762;2023-02-02T04:01:53;99947.66;;;5.66;61.04
28630;BME280;15817;42.130;24.762;2023-02-02T04:04:19;99953.88;;;5.69;61.13
28630;BME280;15817;42.130;24.762;2023-02-02T04:06:45;99950.31;;;5.64;60.92
28630;BME280;15817;42.130;24.762;2023-02-02T04:09:10;99951.19;;;5.65;61.15
28630;BME280;15817;42.130;24.762;2023-02-02T04:11:36;99954.75;;;5.68;60.81
28630;BME280;15817;42.130;24.762;2023-02-02T04:14:02;99941.44;;;5.61;61.09
28630;BME280;15817;42.130;24.762;2023-02-02T04:16:28;99942.22;;;5.55;61.02
28630;BME280;15817;42.130;24.762;2023-02-02T04:18:59;99954.69;;;5.64;61.32
28630;BME280;15817;42.130;24.762;2023-02-02T04:21:25;99947.53;;;5.57;61.71
28630;BME280;15817;42.130;24.762;2023-02-02T04:23:51;99955.41;;;5.52;61.60
28630;BME280;15817;42.130;24.762;2023-02-02T04:26:17;99953.63;;;5.54;61.52
28630;BME280;15817;42.130;24.762;2023-02-02T04:28:43;99961.63;;;5.59;61.39
28630;BME280;15817;42.130;24.762;2023-02-02T04:31:09;99966.94;;;5.60;61.57
28630;BME280;15817;42.130;24.762;2023-02-02T04:33:34;99953.63;;;5.51;61.78
28630;BME280;15817;42.130;24.762;2023-02-02T04:36:00;99950.09;;;5.51;61.92
28630;BME280;15817;42.130;24.762;2023-02-02T04:38:26;99961.53;;;5.51;61.54
28630;BME280;15817;42.130;24.762;2023-02-02T04:40:52;99957.97;;;5.49;61.47
28630;BME280;15817;42.130;24.762;2023-02-02T04:43:21;99971.25;;;5.55;61.89
28630;BME280;15817;42.130;24.762;2023-02-02T04:45:46;99971.22;;;5.52;61.96
28630;BME280;15817;42.130;24.762;2023-02-02T04:48:12;99983.53;;;5.55;62.09
28630;BME280;15817;42.130;24.762;2023-02-02T04:50:38;99979.16;;;5.54;61.64
28630;BME280;15817;42.130;24.762;2023-02-02T04:53:04;99974.66;;;5.48;61.72
28630;BME280;15817;42.130;24.762;2023-02-02T04:55:30;99993.22;;;5.54;61.48
28630;BME280;15817;42.130;24.762;2023-02-02T04:58:00;99979.06;;;5.47;61.55
28630;BME280;15817;42.130;24.762;2023-02-02T05:00:25;99988.66;;;5.44;61.58
28630;BME280;15817;42.130;24.762;2023-02-02T05:02:56;99993.06;;;5.45;61.55
28630;BME280;15817;42.130;24.762;2023-02-02T05:05:21;99994.84;;;5.46;61.80
28630;BME280;15817;42.130;24.762;2023-02-02T05:07:47;99990.41;;;5.42;61.56
28630;BME280;15817;42.130;24.762;2023-02-02T05:10:13;99985.00;;;5.36;61.77
28630;BME280;15817;42.130;24.762;2023-02-02T05:12:39;99993.78;;;5.35;61.76
28630;BME280;15817;42.130;24.762;2023-02-02T05:15:05;99987.59;;;5.33;62.10
28630;BME280;15817;42.130;24.762;2023-02-02T05:17:40;99997.28;;;5.34;62.01
28630;BME280;15817;42.130;24.762;2023-02-02T05:20:06;99999.06;;;5.35;62.23
28630;BME280;15817;42.130;24.762;2023-02-02T05:22:32;100004.34;;;5.36;61.91
28630;BME280;15817;42.130;24.762;2023-02-02T05:24:59;99999.84;;;5.31;61.95
28630;BME280;15817;42.130;24.762;2023-02-02T05:27:25;99996.38;;;5.33;61.99
28630;BME280;15817;42.130;24.762;2023-02-02T05:29:50;100000.72;;;5.28;62.15
28630;BME280;15817;42.130;24.762;2023-02-02T05:32:16;99996.34;;;5.30;61.92
28630;BME280;15817;42.130;24.762;2023-02-02T05:34:42;100001.69;;;5.35;61.81
28630;BME280;15817;42.130;24.762;2023-02-02T05:37:08;100007.75;;;5.31;61.47
28630;BME280;15817;42.130;24.762;2023-02-02T05:39:34;99998.94;;;5.27;61.41
28630;BME280;15817;42.130;24.762;2023-02-02T05:42:00;100014.03;;;5.36;61.20
28630;BME280;15817;42.130;24.762;2023-02-02T05:44:26;100037.84;;;5.40;61.01
28630;BME280;15817;42.130;24.762;2023-02-02T05:46:52;100018.38;;;5.34;61.33
28630;BME280;15817;42.130;24.762;2023-02-02T05:49:18;100023.72;;;5.37;61.11
28630;BME280;15817;42.130;24.762;2023-02-02T05:51:46;100010.47;;;5.34;60.94
28630;BME280;15817;42.130;24.762;2023-02-02T05:54:12;100031.72;;;5.43;61.18
28630;BME280;15817;42.130;24.762;2023-02-02T05:56:44;100024.69;;;5.42;61.13
28630;BME280;15817;42.130;24.762;2023-02-02T05:59:10;100029.94;;;5.40;60.79
28630;BME280;15817;42.130;24.762;2023-02-02T06:01:36;100021.06;;;5.37;60.68
28630;BME280;15817;42.130;24.762;2023-02-02T06:04:01;100034.38;;;5.44;60.98
28630;BME280;15817;42.130;24.762;2023-02-02T06:06:30;100032.63;;;5.45;60.79
28630;BME280;15817;42.130;24.762;2023-02-02T06:08:56;100027.31;;;5.42;60.39
28630;BME280;15817;42.130;24.762;2023-02-02T06:11:22;100030.00;;;5.45;60.30
28630;BME280;15817;42.130;24.762;2023-02-02T06:13:47;100030.84;;;5.44;60.45
28630;BME280;15817;42.130;24.762;2023-02-02T06:16:13;100038.84;;;5.49;60.75
28630;BME280;15817;42.130;24.762;2023-02-02T06:18:39;100043.25;;;5.48;60.68
28630;BME280;15817;42.130;24.762;2023-02-02T06:21:05;100029.97;;;5.42;60.49
28630;BME280;15817;42.130;24.762;2023-02-02T06:23:32;100046.78;;;5.49;60.65
28630;BME280;15817;42.130;24.762;2023-02-02T06:25:58;100049.34;;;5.45;60.68
28630;BME280;15817;42.130;24.762;2023-02-02T06:28:25;100046.81;;;5.50;60.37
28630;BME280;15817;42.130;24.762;2023-02-02T06:30:51;100060.06;;;5.55;60.33
28630;BME280;15817;42.130;24.762;2023-02-02T06:33:16;100056.50;;;5.51;60.21
28630;BME280;15817;42.130;24.762;2023-02-02T06:35:45;100045.81;;;5.45;60.51
28630;BME280;15817;42.130;24.762;2023-02-02T06:38:31;100057.41;;;5.55;60.49
28630;BME280;15817;42.130;24.762;2023-02-02T06:41:01;100053.03;;;5.54;60.21
28630;BME280;15817;42.130;24.762;2023-02-02T06:43:27;100041.53;;;5.50;60.07
28630;BME280;15817;42.130;24.762;2023-02-02T06:45:56;100045.13;;;5.54;59.82
28630;BME280;15817;42.130;24.762;2023-02-02T06:48:22;100060.19;;;5.62;59.46
28630;BME280;15817;42.130;24.762;2023-02-02T06:51:28;100055.00;;;5.68;59.34
28630;BME280;15817;42.130;24.762;2023-02-02T06:53:53;100043.53;;;5.66;59.48
28630;BME280;15817;42.130;24.762;2023-02-02T06:56:19;100040.88;;;5.63;58.90
28630;BME280;15817;42.130;24.762;2023-02-02T06:58:47;100044.44;;;5.67;59.09
28630;BME280;15817;42.130;24.762;2023-02-02T07:01:16;100047.97;;;5.69;59.12
28630;BME280;15817;42.130;24.762;2023-02-02T07:03:48;100047.25;;;5.76;59.15
28630;BME280;15817;42.130;24.762;2023-02-02T07:06:17;100068.41;;;5.80;58.94
28630;BME280;15817;42.130;24.762;2023-02-02T07:08:53;100060.56;;;5.83;59.15
28630;BME280;15817;42.130;24.762;2023-02-02T07:11:19;100083.53;;;5.89;59.27
28630;BME280;15817;42.130;24.762;2023-02-02T07:13:54;100057.00;;;5.81;59.15
28630;BME280;15817;42.130;24.762;2023-02-02T07:16:20;100067.53;;;5.81;59.79
28630;BME280;15817;42.130;24.762;2023-02-02T07:18:46;100068.53;;;5.87;59.55
28630;BME280;15817;42.130;24.762;2023-02-02T07:21:19;100083.66;;;5.95;59.48
28630;BME280;15817;42.130;24.762;2023-02-02T07:23:55;100071.22;;;5.90;59.70
28630;BME280;15817;42.130;24.762;2023-02-02T07:26:54;100076.69;;;6.02;59.60
28630;BME280;15817;42.130;24.762;2023-02-02T07:29:25;100071.50;;;6.06;59.49
28630;BME280;15817;42.130;24.762;2023-02-02T07:31:51;100067.19;;;6.13;59.00
28630;BME280;15817;42.130;24.762;2023-02-02T07:34:16;100050.56;;;6.18;59.00
28630;BME280;15817;42.130;24.762;2023-02-02T07:36:42;100062.16;;;6.30;58.46
28630;BME280;15817;42.130;24.762;2023-02-02T07:39:08;100076.47;;;6.47;58.38
28630;BME280;15817;42.130;24.762;2023-02-02T07:41:39;100058.00;;;6.45;57.57
28630;BME280;15817;42.130;24.762;2023-02-02T07:44:15;100059.81;;;6.51;57.55
28630;BME280;15817;42.130;24.762;2023-02-02T07:46:45;100059.03;;;6.57;57.39
28630;BME280;15817;42.130;24.762;2023-02-02T07:49:13;100065.31;;;6.66;57.60
28630;BME280;15817;42.130;24.762;2023-02-02T07:51:40;100065.41;;;6.75;57.44
28630;BME280;15817;42.130;24.762;2023-02-02T07:54:07;100076.19;;;6.90;57.38
28630;BME280;15817;42.130;24.762;2023-02-02T07:56:33;100066.50;;;6.91;56.89
28630;BME280;15817;42.130;24.762;2023-02-02T07:59:05;100073.59;;;6.95;56.99
28630;BME280;15817;42.130;24.762;2023-02-02T08:01:37;100078.88;;;6.95;57.09
28630;BME280;15817;42.130;24.762;2023-02-02T08:04:06;100078.84;;;6.90;57.08
28630;BME280;15817;42.130;24.762;2023-02-02T08:06:40;100076.22;;;6.95;56.92
28630;BME280;15817;42.130;24.762;2023-02-02T08:09:28;100090.38;;;6.99;57.10
28630;BME280;15817;42.130;24.762;2023-02-02T08:11:54;100070.94;;;6.92;57.13
28630;BME280;15817;42.130;24.762;2023-02-02T08:14:51;100079.88;;;7.06;56.98
28630;BME280;15817;42.130;24.762;2023-02-02T08:17:19;100060.53;;;7.09;56.25
28630;BME280;15817;42.130;24.762;2023-02-02T08:19:45;100064.19;;;7.21;56.26
28630;BME280;15817;42.130;24.762;2023-02-02T08:22:11;100085.47;;;7.32;56.40
28630;BME280;15817;42.130;24.762;2023-02-02T08:24:37;100057.22;;;7.30;55.93
28630;BME280;15817;42.130;24.762;2023-02-02T08:27:11;100068.75;;;7.35;55.87
28630;BME280;15817;42.130;24.762;2023-02-02T08:29:38;100061.59;;;7.27;56.03
28630;BME280;15817;42.130;24.762;2023-02-02T08:32:06;100068.66;;;7.25;56.19
28630;BME280;15817;42.130;24.762;2023-02-02T08:34:32;100065.97;;;7.22;55.76
28630;BME280;15817;42.130;24.762;2023-02-02T08:37:02;100058.97;;;7.26;55.97
28630;BME280;15817;42.130;24.762;2023-02-02T08:39:30;100057.16;;;7.23;55.50
28630;BME280;15817;42.130;24.762;2023-02-02T08:41:56;100066.09;;;7.33;55.91
28630;BME280;15817;42.130;24.762;2023-02-02T08:44:22;100070.53;;;7.37;55.40
28630;BME280;15817;42.130;24.762;2023-02-02T08:46:51;100052.91;;;7.38;55.07
28630;BME280;15817;42.130;24.762;2023-02-02T08:49:16;100060.06;;;7.48;54.63
28630;BME280;15817;42.130;24.762;2023-02-02T08:51:42;100059.19;;;7.52;54.45
28630;BME280;15817;42.130;24.762;2023-02-02T08:54:08;100065.47;;;7.63;54.35
28630;BME280;15817;42.130;24.762;2023-02-02T08:56:34;100055.78;;;7.65;53.76
28630;BME280;15817;42.130;24.762;2023-02-02T08:59:00;100049.69;;;7.72;53.91
28630;BME280;15817;42.130;24.762;2023-02-02T09:01:31;100052.44;;;7.83;53.50
28630;BME280;15817;42.130;24.762;2023-02-02T09:04:02;100056.06;;;7.95;53.73
28630;BME280;15817;42.130;24.762;2023-02-02T09:06:52;100041.97;;;8.01;52.90
28630;BME280;15817;42.130;24.762;2023-02-02T09:09:18;100032.22;;;7.98;53.13
28630;BME280;15817;42.130;24.762;2023-02-02T09:11:44;100045.53;;;8.08;53.17
28630;BME280;15817;42.130;24.762;2023-02-02T09:14:17;100013.75;;;8.06;52.65
28630;BME280;15817;42.130;24.762;2023-02-02T09:16:51;100016.47;;;8.18;52.81
28630;BME280;15817;42.130;24.762;2023-02-02T09:22:37;100003.34;;;8.33;52.73
28630;BME280;15817;42.130;24.762;2023-02-02T09:25:06;100003.41;;;8.47;52.65
28630;BME280;15817;42.130;24.762;2023-02-02T09:27:38;100004.31;;;8.52;51.90
28630;BME280;15817;42.130;24.762;2023-02-02T09:30:30;99999.00;;;8.54;52.55
28630;BME280;15817;42.130;24.762;2023-02-02T09:33:29;99989.38;;;8.71;51.50
28630;BME280;15817;42.130;24.762;2023-02-02T09:36:06;99979.69;;;8.87;50.99
28630;BME280;15817;42.130;24.762;2023-02-02T09:38:52;99967.34;;;8.96;50.84
28630;BME280;15817;42.130;24.762;2023-02-02T09:49:38;99971.78;;;9.14;50.22
28630;BME280;15817;42.130;24.762;2023-02-02T09:52:19;99971.81;;;9.20;50.02
28630;BME280;15817;42.130;24.762;2023-02-02T09:54:49;99962.94;;;9.26;49.98
28630;BME280;15817;42.130;24.762;2023-02-02T09:57:40;99969.16;;;9.48;49.58
28630;BME280;15817;42.130;24.762;2023-02-02T10:00:23;99972.69;;;9.59;49.35
28630;BME280;15817;42.130;24.762;2023-02-02T10:02:56;99959.44;;;9.68;49.05
28630;BME280;15817;42.130;24.762;2023-02-02T10:05:30;99946.13;;;9.72;48.96
28630;BME280;15817;42.130;24.762;2023-02-02T10:08:01;99946.13;;;9.78;49.12
28630;BME280;15817;42.130;24.762;2023-02-02T10:10:36;99932.84;;;9.78;48.86
28630;BME280;15817;42.130;24.762;2023-02-02T10:13:09;99933.72;;;9.87;48.51
28630;BME280;15817;42.130;24.762;2023-02-02T10:15:38;99918.66;;;9.92;48.51
28630;BME280;15817;42.130;24.762;2023-02-02T10:18:47;99921.28;;;9.99;48.29
28630;BME280;15817;42.130;24.762;2023-02-02T10:24:24;99907.06;;;10.14;48.31
28630;BME280;15817;42.130;24.762;2023-02-02T10:26:53;99905.25;;;10.16;48.43
28630;BME280;15817;42.130;24.762;2023-02-02T10:32:33;99899.97;;;10.25;48.32
28630;BME280;15817;42.130;24.762;2023-02-02T10:35:10;99894.63;;;10.34;47.93
28630;BME280;15817;42.130;24.762;2023-02-02T10:40:50;99886.59;;;10.45;47.80
28630;BME280;15817;42.130;24.762;2023-02-02T10:46:39;99867.03;;;10.50;47.64
28630;BME280;15817;42.130;24.762;2023-02-02T10:49:29;99867.03;;;10.53;46.19
28630;BME280;15817;42.130;24.762;2023-02-02T10:52:04;99875.88;;;10.56;46.42
28630;BME280;15817;42.130;24.762;2023-02-02T10:54:57;99865.25;;;10.54;46.55
28630;BME280;15817;42.130;24.762;2023-02-02T11:03:54;99838.66;;;10.54;46.70
28630;BME280;15817;42.130;24.762;2023-02-02T11:06:54;99836.88;;;10.56;46.13
28630;BME280;15817;42.130;24.762;2023-02-02T11:09:23;99838.59;;;10.63;46.60
28630;BME280;15817;42.130;24.762;2023-02-02T11:12:19;99840.28;;;10.76;46.29
28630;BME280;15817;42.130;24.762;2023-02-02T11:15:21;99816.31;;;10.78;45.95
28630;BME280;15817;42.130;24.762;2023-02-02T11:17:48;99817.28;;;10.68;46.21
28630;BME280;15817;42.130;24.762;2023-02-02T11:20:34;99821.66;;;10.76;46.20
28630;BME280;15817;42.130;24.762;2023-02-02T11:23:04;99799.44;;;10.83;46.53
28630;BME280;15817;42.130;24.762;2023-02-02T11:25:33;99785.25;;;10.83;46.50
28630;BME280;15817;42.130;24.762;2023-02-02T11:28:09;99782.53;;;10.91;46.11
28630;BME280;15817;42.130;24.762;2023-02-02T11:30:37;99768.31;;;10.92;46.13
28630;BME280;15817;42.130;24.762;2023-02-02T11:33:30;99778.00;;;11.02;46.07
28630;BME280;15817;42.130;24.762;2023-02-02T11:36:05;99767.25;;;11.11;45.92
28630;BME280;15817;42.130;24.762;2023-02-02T11:38:32;99745.09;;;11.09;45.45
28630;BME280;15817;42.130;24.762;2023-02-02T11:41:03;99760.06;;;11.20;45.57
28630;BME280;15817;42.130;24.762;2023-02-02T11:43:39;99747.63;;;11.21;44.25
28630;BME280;15817;42.130;24.762;2023-02-02T11:46:19;99735.16;;;11.24;45.31
28630;BME280;15817;42.130;24.762;2023-02-02T11:48:51;99739.38;;;11.42;43.81
28630;BME280;15817;42.130;24.762;2023-02-02T11:51:25;99726.94;;;11.46;42.52
28630;BME280;15817;42.130;24.762;2023-02-02T11:54:01;99722.47;;;11.49;42.36
28630;BME280;15817;42.130;24.762;2023-02-02T11:56:29;99718.03;;;11.48;42.08
28630;BME280;15817;42.130;24.762;2023-02-02T11:58:56;99714.47;;;11.51;41.92
28630;BME280;15817;42.130;24.762;2023-02-02T12:07:35;99722.38;;;11.55;40.90
28630;BME280;15817;42.130;24.762;2023-02-02T12:18:49;99712.84;;;11.38;40.26
28630;BME280;15817;42.130;24.762;2023-02-02T12:26:34;99712.59;;;11.57;40.49
28630;BME280;15817;42.130;24.762;2023-02-02T13:03:53;99705.72;;;11.41;39.54
28630;BME280;15817;42.130;24.762;2023-02-02T13:06:48;99700.38;;;11.41;39.62
28630;BME280;15817;42.130;24.762;2023-02-02T13:09:40;99688.03;;;11.34;39.70
28630;BME280;15817;42.130;24.762;2023-02-02T13:12:11;99677.50;;;11.22;39.82
28630;BME280;15817;42.130;24.762;2023-02-02T13:14:44;99688.13;;;11.25;39.91
28630;BME280;15817;42.130;24.762;2023-02-02T13:17:28;99671.44;;;11.11;40.00
28630;BME280;15817;42.130;24.762;2023-02-02T13:20:34;99677.59;;;11.16;39.72
28630;BME280;15817;42.130;24.762;2023-02-02T13:23:12;99673.22;;;11.09;40.12
28630;BME280;15817;42.130;24.762;2023-02-02T13:25:52;99660.88;;;11.03;39.71
28630;BME280;15817;42.130;24.762;2023-02-02T13:36:49;99646.59;;;11.10;40.26
28630;BME280;15817;42.130;24.762;2023-02-02T13:39:32;99659.84;;;11.18;40.80
28630;BME280;15817;42.130;24.762;2023-02-02T13:42:02;99669.53;;;11.20;40.39
28630;BME280;15817;42.130;24.762;2023-02-02T13:44:48;99673.03;;;11.25;40.77
28630;BME280;15817;42.130;24.762;2023-02-02T13:47:41;99661.47;;;11.28;40.38
28630;BME280;15817;42.130;24.762;2023-02-02T14:02:26;99663.16;;;11.35;37.97
28630;BME280;15817;42.130;24.762;2023-02-02T14:04:56;99665.03;;;11.27;38.01
28630;BME280;15817;42.130;24.762;2023-02-02T14:07:42;99674.84;;;11.20;39.18
28630;BME280;15817;42.130;24.762;2023-02-02T14:10:28;99697.13;;;11.13;43.34
28630;BME280;15817;42.130;24.762;2023-02-02T14:13:27;99697.25;;;11.03;45.34
28630;BME280;15817;42.130;24.762;2023-02-02T14:26:10;99660.69;;;10.30;53.63
28630;BME280;15817;42.130;24.762;2023-02-02T14:28:42;99655.44;;;10.25;54.22
28630;BME280;15817;42.130;24.762;2023-02-02T14:31:26;99672.28;;;10.24;54.27
28630;BME280;15817;42.130;24.762;2023-02-02T14:40:47;99679.38;;;10.24;53.40
28630;BME280;15817;42.130;24.762;2023-02-02T14:47:07;99706.75;;;10.36;52.31
28630;BME280;15817;42.130;24.762;2023-02-02T14:49:56;99696.16;;;10.29;51.87
28630;BME280;15817;42.130;24.762;2023-02-02T14:52:44;99701.47;;;10.29;52.00
28630;BME280;15817;42.130;24.762;2023-02-02T14:55:20;99726.25;;;10.31;51.83
28630;BME280;15817;42.130;24.762;2023-02-02T14:57:55;99707.66;;;10.28;52.15
28630;BME280;15817;42.130;24.762;2023-02-02T15:00:54;99702.38;;;10.26;52.61
28630;BME280;15817;42.130;24.762;2023-02-02T15:13:32;99705.97;;;10.14;54.67
28630;BME280;15817;42.130;24.762;2023-02-02T15:16:24;99693.59;;;10.07;54.99
28630;BME280;15817;42.130;24.762;2023-02-02T15:18:58;99692.72;;;10.05;55.33
28630;BME280;15817;42.130;24.762;2023-02-02T15:21:36;99702.53;;;9.99;56.07
28630;BME280;15817;42.130;24.762;2023-02-02T15:24:51;99708.75;;;9.95;56.25
28630;BME280;15817;42.130;24.762;2023-02-02T15:27:21;99722.06;;;9.90;56.85
28630;BME280;15817;42.130;24.762;2023-02-02T15:29:56;99716.78;;;9.87;57.01
28630;BME280;15817;42.130;24.762;2023-02-02T15:32:25;99720.31;;;9.85;57.74
28630;BME280;15817;42.130;24.762;2023-02-02T15:35:06;99734.47;;;9.85;57.81
28630;BME280;15817;42.130;24.762;2023-02-02T15:37:46;99738.03;;;9.81;57.76
28630;BME280;15817;42.130;24.762;2023-02-02T15:40:24;99751.31;;;9.84;58.25
28630;BME280;15817;42.130;24.762;2023-02-02T15:43:09;99741.63;;;9.77;58.79
28630;BME280;15817;42.130;24.762;2023-02-02T15:45:47;99746.06;;;9.72;59.57
28630;BME280;15817;42.130;24.762;2023-02-02T15:52:00;99769.94;;;9.79;59.40
28630;BME280;15817;42.130;24.762;2023-02-02T15:54:33;99769.97;;;9.70;59.39
28630;BME280;15817;42.130;24.762;2023-02-02T15:57:25;99792.09;;;9.77;59.47
28630;BME280;15817;42.130;24.762;2023-02-02T15:59:54;99792.09;;;9.71;59.58
28630;BME280;15817;42.130;24.762;2023-02-02T16:04:55;99799.16;;;9.72;59.72
28630;BME280;15817;42.130;24.762;2023-02-02T16:07:30;99795.63;;;9.70;59.94
28630;BME280;15817;42.130;24.762;2023-02-02T16:10:04;99796.56;;;9.63;59.41